createdAt,value
2023-05-10T00:00:49.280Z,0
2023-05-10T00:05:50.905Z,0
2023-05-10T00:10:52.394Z,0
2023-05-10T00:15:54.045Z,0
2023-05-10T00:20:55.666Z,0
2023-05-10T00:25:57.176Z,0
2023-05-10T00:30:58.643Z,0.88715
2023-05-10T00:36:00.255Z,0
2023-05-10T00:41:01.924Z,0
2023-05-10T00:46:03.619Z,0.88715
2023-05-10T00:51:05.303Z,0
2023-05-10T00:56:06.837Z,0
2023-05-10T01:01:08.544Z,0.88715
2023-05-10T01:06:09.849Z,0
2023-05-10T01:11:11.186Z,0.88715
2023-05-10T01:16:12.896Z,0
2023-05-10T01:21:14.306Z,0
2023-05-10T01:26:16.071Z,0.88715
2023-05-10T01:31:17.962Z,0
2023-05-10T01:36:19.568Z,0.88715
2023-05-10T01:41:21.197Z,0
2023-05-10T01:46:22.784Z,0
2023-05-10T01:51:24.496Z,0
2023-05-10T01:56:26.177Z,0
2023-05-10T02:01:27.462Z,0
2023-05-10T02:06:28.731Z,0
2023-05-10T02:11:30.044Z,0
2023-05-10T02:16:31.367Z,0
2023-05-10T02:21:33.077Z,0
2023-05-10T02:26:34.333Z,0
2023-05-10T02:31:35.636Z,0
2023-05-10T02:36:36.884Z,0
2023-05-10T02:41:38.279Z,0
2023-05-10T02:46:39.637Z,0
2023-05-10T02:51:41.043Z,0
2023-05-10T02:56:42.527Z,0.88715
2023-05-10T03:01:43.841Z,0
2023-05-10T03:06:45.345Z,0.88715
2023-05-10T03:11:47.058Z,0
2023-05-10T03:16:48.353Z,0.88715
2023-05-10T03:21:50.074Z,0
2023-05-10T03:26:51.717Z,0
2023-05-10T03:31:53.131Z,0
2023-05-10T03:36:54.791Z,0.88715
2023-05-10T03:41:56.421Z,0.88715
2023-05-10T03:46:58.090Z,0
2023-05-10T03:51:59.747Z,0.88715
2023-05-10T03:57:01.401Z,0.88715
2023-05-10T04:02:03.209Z,0.88715
2023-05-10T04:07:04.912Z,0.88715
2023-05-10T04:12:08.942Z,0.88715
2023-05-10T04:17:11.975Z,1.16185
2023-05-10T04:22:13.626Z,1.3463
2023-05-10T04:27:15.263Z,3.85445
2023-05-10T04:32:16.870Z,5.7541
2023-05-10T04:37:18.585Z,15.4178
2023-05-10T04:42:20.295Z,27.58965
2023-05-10T04:47:22.022Z,45.3863
2023-05-10T04:52:23.530Z,64.16035
2023-05-10T04:57:25.117Z,83.9118
2023-05-10T05:02:26.740Z,102.8703
2023-05-10T05:07:28.198Z,121.8288
2023-05-10T05:12:29.616Z,146.22765
2023-05-10T05:17:30.979Z,164.6328
2023-05-10T05:22:32.473Z,181.8761
2023-05-10T05:27:33.795Z,197.4042
2023-05-10T05:32:35.179Z,217.5797
2023-05-10T05:37:36.522Z,227.6123
2023-05-10T05:42:38.159Z,234.89715
2023-05-10T05:47:39.448Z,251.90085
2023-05-10T05:52:40.885Z,252.2146
2023-05-10T05:57:42.638Z,274.28975
2023-05-10T06:02:44.285Z,282.3124
2023-05-10T06:07:46.171Z,299.9246
2023-05-10T06:12:47.885Z,330.262
2023-05-10T06:17:49.438Z,344.64725
2023-05-10T06:22:51.004Z,374.9295
2023-05-10T06:27:53.971Z,406.20815
2023-05-10T06:32:55.744Z,461.03755
2023-05-10T06:37:57.441Z,523.70515
2023-05-10T06:42:59.096Z,571.32385
2023-05-10T06:48:00.881Z,614.16585
2023-05-10T06:53:02.578Z,651.0693
2023-05-10T06:58:04.305Z,663.8135
2023-05-10T07:03:05.967Z,676.1888
2023-05-10T07:08:07.703Z,691.8652
2023-05-10T07:13:09.488Z,710.04975
2023-05-10T07:18:11.303Z,731.59055
2023-05-10T07:23:12.989Z,738.3962
2023-05-10T07:28:14.932Z,759.64225
2023-05-10T07:33:16.621Z,784.85305
2023-05-10T07:38:18.285Z,793.7428
2023-05-10T07:43:19.981Z,808.25735
2023-05-10T07:48:21.932Z,830.4808
2023-05-10T07:53:23.602Z,850.38055
2023-05-10T07:58:25.323Z,855.2314
2023-05-10T08:03:27.183Z,884.9793
2023-05-10T08:08:28.646Z,917.60425
2023-05-10T08:13:29.944Z,915.31855
2023-05-10T08:18:31.355Z,917.18205
2023-05-10T08:23:32.742Z,948.03665
2023-05-10T08:28:34.257Z,970.94275
2023-05-10T08:33:35.560Z,981.677
2023-05-10T08:38:36.874Z,982.8217
2023-05-10T08:43:38.411Z,954.42195
2023-05-10T08:48:40.178Z,1009.74955
2023-05-10T08:53:41.468Z,1041.34195
2023-05-10T08:58:42.811Z,1078.8729
2023-05-10T09:03:44.452Z,1077.01125
2023-05-10T09:08:45.786Z,1111.42555
2023-05-10T09:13:47.395Z,1131.215
2023-05-10T09:18:49.181Z,1167.8047
2023-05-10T09:23:51.099Z,1164.83635
2023-05-10T09:28:53.057Z,1141.8408
2023-05-10T09:33:54.888Z,1188.0942
2023-05-10T09:38:56.479Z,1179.7958
2023-05-10T09:43:57.905Z,1241.9842
2023-05-10T09:48:59.220Z,1212.84665
2023-05-10T09:54:00.547Z,1275.6607
2023-05-10T09:59:02.481Z,1327.9078
2023-05-10T10:04:04.208Z,1334.0498
2023-05-10T10:09:05.837Z,1388.2517
2023-05-10T10:14:07.485Z,1412.30065
2023-05-10T10:19:09.068Z,1445.71855
2023-05-10T10:24:10.860Z,1480.59305
2023-05-10T10:29:12.819Z,1531.9179
2023-05-10T10:34:14.634Z,1587.5954
2023-05-10T10:39:16.427Z,1596.35585
2023-05-10T10:44:18.047Z,1595.37845
2023-05-10T10:49:19.819Z,1658.67355
2023-05-10T10:54:21.414Z,1616.8298
2023-05-10T10:59:23.016Z,571.7062
2023-05-10T11:04:24.688Z,838.37045
2023-05-10T11:09:26.581Z,1646.9086
2023-05-10T11:14:28.464Z,1734.63685
2023-05-10T11:19:29.912Z,1735.89
2023-05-10T11:24:31.279Z,1860.5597
2023-05-10T11:29:32.598Z,1775.6895
2023-05-10T11:34:33.938Z,1699.4866
2023-05-10T11:39:38.624Z,1787.75105
2023-05-10T11:44:40.058Z,1866.6447
2023-05-10T11:49:41.353Z,1897.03725
2023-05-10T11:54:42.629Z,1950.0583
2023-05-10T11:59:44.071Z,1976.89115
2023-05-10T12:04:45.377Z,1996.33255
2023-05-10T12:09:46.796Z,1409.5075
2023-05-10T12:14:48.314Z,1909.54185
2023-05-10T12:19:49.560Z,2014.2928
2023-05-10T12:24:50.903Z,675.6679
2023-05-10T12:29:52.221Z,548.93125
2023-05-10T12:34:53.541Z,1626.64415
2023-05-10T12:39:54.893Z,2013.10825
2023-05-10T12:44:56.213Z,1979.3423
2023-05-10T12:49:57.465Z,1849.0325
2023-05-10T12:54:58.947Z,1762.85215
2023-05-10T13:00:00.281Z,1740.66485
2023-05-10T13:05:01.767Z,1713.8663
2023-05-10T13:10:03.192Z,1757.2598
2023-05-10T13:15:04.576Z,1767.38185
2023-05-10T13:20:05.895Z,1767.63675
2023-05-10T13:25:07.339Z,1854.8288
2023-05-10T13:30:08.753Z,1811.6902
2023-05-10T13:35:10.417Z,1833.74635
2023-05-10T13:40:12.035Z,1769.6583
2023-05-10T13:45:13.512Z,1734.5252
2023-05-10T13:50:14.765Z,1731.86875
2023-05-10T13:55:16.206Z,1591.06245
2023-05-10T14:00:18.355Z,1576.95295
2023-05-10T14:05:24.127Z,1491.6017
2023-05-10T14:10:27.390Z,1357.21315
2023-05-10T14:15:28.700Z,1220.92495
2023-05-10T14:20:30.052Z,1092.0509
2023-05-10T14:25:31.420Z,968.3586
2023-05-10T14:30:32.831Z,780.2112
2023-05-10T14:35:34.227Z,504.97835
2023-05-10T14:40:35.802Z,374.40625
2023-05-10T14:45:37.240Z,312.292
2023-05-10T14:50:38.603Z,253.2944
2023-05-10T14:55:40.051Z,204.51385
2023-05-10T15:00:41.617Z,173.7144
2023-05-10T15:05:43.551Z,128.2901
2023-05-10T15:10:45.310Z,97.987
2023-05-10T15:15:47.157Z,78.15955
2023-05-10T15:20:48.832Z,59.8457
2023-05-10T15:25:50.448Z,42.9523
2023-05-10T15:30:52.053Z,24.04895
2023-05-10T15:35:53.730Z,7.28865
2023-05-10T15:40:55.840Z,4.96115
2023-05-10T15:45:57.806Z,2.13325
2023-05-10T15:50:59.411Z,0.8296
2023-05-10T15:56:00.991Z,1.16185
2023-05-10T16:01:02.779Z,0.88715
2023-05-10T16:06:04.121Z,0.88715
2023-05-10T16:11:05.458Z,0
2023-05-10T16:16:06.840Z,0
2023-05-10T16:21:08.460Z,0
2023-05-10T16:26:10.227Z,0
2023-05-10T16:31:11.757Z,0
2023-05-10T16:36:13.297Z,0.88715
2023-05-10T16:41:14.781Z,0.88715
2023-05-10T16:46:16.440Z,0
2023-05-10T16:51:18.087Z,0
2023-05-10T16:56:19.366Z,0.88715
2023-05-10T17:01:20.810Z,0.88715
2023-05-10T17:06:22.184Z,0.88715
2023-05-10T17:11:23.525Z,0
2023-05-10T17:16:25.500Z,0.88715
2023-05-10T17:21:27.176Z,0.88715
2023-05-10T17:26:28.801Z,0
2023-05-10T17:31:30.495Z,0
2023-05-10T17:36:32.058Z,0
2023-05-10T17:41:33.749Z,0
2023-05-10T17:46:35.431Z,0
2023-05-10T17:51:36.798Z,0
2023-05-10T17:56:38.286Z,0
2023-05-10T18:01:40.154Z,0
2023-05-10T18:06:41.735Z,0
2023-05-10T18:11:42.988Z,0
2023-05-10T18:16:44.315Z,0
2023-05-10T18:21:46.184Z,0
2023-05-10T18:26:47.882Z,0
2023-05-10T18:31:49.697Z,0
2023-05-10T18:36:51.514Z,0
2023-05-10T18:41:53.430Z,0
2023-05-10T18:46:55.288Z,0
2023-05-10T18:51:57.236Z,0
2023-05-10T18:56:59.187Z,0
2023-05-10T19:02:01.125Z,0.88715
2023-05-10T19:07:03.134Z,0
2023-05-10T19:12:05.008Z,0
2023-05-10T19:17:06.877Z,0.88715
2023-05-10T19:22:08.528Z,0
2023-05-10T19:27:10.315Z,0
2023-05-10T19:32:12.288Z,0
2023-05-10T19:37:14.200Z,0.88715
2023-05-10T19:42:15.991Z,0
2023-05-10T19:47:17.893Z,0
2023-05-10T19:52:19.500Z,0
2023-05-10T19:57:21.449Z,0
2023-05-10T20:02:23.070Z,0
2023-05-10T20:07:24.774Z,0
2023-05-10T20:12:26.665Z,0
2023-05-10T20:17:28.277Z,0
2023-05-10T20:22:29.915Z,0
2023-05-10T20:27:31.617Z,0
2023-05-10T20:32:33.078Z,0
2023-05-10T20:37:34.619Z,0
2023-05-10T20:42:36.237Z,0.88715
2023-05-10T20:47:37.658Z,0
2023-05-10T20:52:39.300Z,0
2023-05-10T20:57:40.587Z,0.88715
2023-05-10T21:02:41.931Z,0
2023-05-10T21:07:43.472Z,0
2023-05-10T21:12:44.766Z,0
2023-05-10T21:17:46.369Z,0
2023-05-10T21:22:47.653Z,0
2023-05-10T21:27:49.044Z,0
2023-05-10T21:32:50.911Z,0
2023-05-10T21:37:52.479Z,0
2023-05-10T21:42:53.855Z,0
2023-05-10T21:47:55.527Z,0
2023-05-10T21:52:57.209Z,0
2023-05-10T21:57:58.757Z,0
2023-05-10T22:03:00.364Z,0
2023-05-10T22:08:02.210Z,0
2023-05-10T22:13:03.943Z,0
2023-05-10T22:18:05.719Z,0
2023-05-10T22:23:07.420Z,0
2023-05-10T22:28:09.025Z,0
2023-05-10T22:33:10.818Z,0
2023-05-10T22:38:12.442Z,0
2023-05-10T22:43:14.053Z,0
2023-05-10T22:48:15.743Z,0
2023-05-10T22:53:17.451Z,0
2023-05-10T22:58:19.157Z,0.88715
2023-05-10T23:03:20.814Z,0
2023-05-10T23:08:22.375Z,0
2023-05-10T23:13:23.908Z,0
2023-05-10T23:18:25.718Z,0.88715
2023-05-10T23:23:27.339Z,0
2023-05-10T23:28:28.941Z,0
2023-05-10T23:33:30.681Z,0
2023-05-10T23:38:32.262Z,0
2023-05-10T23:43:33.609Z,0
2023-05-10T23:48:34.962Z,0
2023-05-10T23:53:36.285Z,0
2023-05-10T23:58:37.576Z,0
